Time;durP1;ratioP1;P1;durP2;ratioP2;P2;SDS_P1;SDS_P2;PMS_P1;PMS_P2;Temp;Humidity;BMP_temperature;BMP_pressure;BME280_temperature;BME280_humidity;BME280_pressure;Samples;Min_cycle;Max_cycle;Signal;HPM_P1;HPM_P2
2021/04/30 00:01:18;;;;;;;67.37;34.70;;;7.60;99.90;;;;;;5077159;28;20067;-81
2021/04/30 00:03:46;;;;;;;63.40;35.22;;;7.60;99.90;;;;;;5073906;28;20051;-81
2021/04/30 00:06:13;;;;;;;58.93;34.97;;;7.60;99.90;;;;;;5040719;28;20383;-81
2021/04/30 00:08:40;;;;;;;72.30;32.83;;;7.70;99.90;;;;;;5055735;28;20036;-81
2021/04/30 00:11:08;;;;;;;56.47;33.15;;;7.60;99.90;;;;;;5062647;28;20048;-81
2021/04/30 00:13:36;;;;;;;58.63;33.60;;;7.70;99.90;;;;;;5060764;28;20031;-81
2021/04/30 00:16:04;;;;;;;59.35;32.78;;;7.70;99.90;;;;;;5074454;28;20040;-81
2021/04/30 00:18:30;;;;;;;57.17;30.40;;;7.70;99.90;;;;;;5061063;28;20051;-81
2021/04/30 00:20:59;;;;;;;59.88;30.80;;;7.70;99.90;;;;;;5069985;28;20051;-81
2021/04/30 00:23:27;;;;;;;54.15;33.08;;;7.70;99.90;;;;;;5043704;28;20048;-81
2021/04/30 00:26:03;;;;;;;64.82;31.58;;;7.70;99.90;;;;;;5056158;28;20044;-81
2021/04/30 00:28:30;;;;;;;54.20;30.17;;;7.70;99.90;;;;;;5081540;28;20040;-80
2021/04/30 00:30:59;;;;;;;58.88;32.53;;;7.70;99.90;;;;;;5064933;28;20499;-80
2021/04/30 00:33:27;;;;;;;66.60;32.72;;;7.70;99.90;;;;;;5055735;28;20045;-81
2021/04/30 00:35:55;;;;;;;53.40;30.90;;;7.70;99.90;;;;;;5076511;28;20044;-81
2021/04/30 00:38:21;;;;;;;54.57;31.40;;;7.70;99.90;;;;;;5057018;28;20036;-80
2021/04/30 00:40:48;;;;;;;62.77;31.93;;;7.70;99.90;;;;;;5080430;28;20044;-80
2021/04/30 00:43:16;;;;;;;58.65;30.73;;;7.70;99.90;;;;;;5035001;28;20060;-81
2021/04/30 00:45:52;;;;;;;52.05;29.10;;;7.80;99.90;;;;;;5072870;28;20044;-81
2021/04/30 00:48:21;;;;;;;64.78;31.63;;;7.80;99.90;;;;;;5041734;28;20049;-80
2021/04/30 00:50:48;;;;;;;64.97;31.65;;;7.80;99.90;;;;;;5074962;28;20039;-81
2021/04/30 00:53:15;;;;;;;48.75;29.13;;;7.80;99.90;;;;;;5074283;28;20047;-81
2021/04/30 00:55:41;;;;;;;69.95;34.90;;;7.90;99.90;;;;;;5076169;28;20051;-81
2021/04/30 00:58:08;;;;;;;69.22;33.75;;;7.90;99.90;;;;;;5071142;28;20044;-80
2021/04/30 01:00:36;;;;;;;56.83;33.53;;;7.90;99.90;;;;;;5047780;28;20055;-80
2021/04/30 01:03:07;;;;;;;74.43;34.90;;;7.90;99.90;;;;;;5054200;28;20047;-80
2021/04/30 01:05:35;;;;;;;71.63;33.83;;;7.90;99.90;;;;;;5079256;28;20052;-80
2021/04/30 01:08:03;;;;;;;76.15;32.65;;;7.90;99.90;;;;;;5054568;28;20040;-79
2021/04/30 01:10:30;;;;;;;53.00;27.88;;;7.90;99.90;;;;;;5042423;28;20056;-80
2021/04/30 01:12:57;;;;;;;56.08;29.63;;;7.90;99.90;;;;;;5057332;28;20044;-80
2021/04/30 01:15:24;;;;;;;60.65;31.95;;;7.90;99.90;;;;;;5071964;28;20051;-80
2021/04/30 01:17:51;;;;;;;50.92;30.00;;;8.00;99.90;;;;;;5039713;28;20044;-80
2021/04/30 01:20:19;;;;;;;55.90;30.63;;;7.90;99.90;;;;;;5055649;28;20063;-80
2021/04/30 01:22:48;;;;;;;70.55;33.58;;;8.00;99.90;;;;;;5056529;28;20052;-80
2021/04/30 01:25:27;;;;;;;67.65;35.45;;;8.00;99.90;;;;;;5047362;28;20055;-80
2021/04/30 01:27:54;;;;;;;72.40;34.33;;;8.00;99.90;;;;;;5074108;28;20032;-80
2021/04/30 01:30:25;;;;;;;67.57;36.38;;;8.00;99.90;;;;;;5072885;28;20095;-80
2021/04/30 01:32:52;;;;;;;73.72;34.22;;;8.00;99.90;;;;;;5055787;28;20040;-80
2021/04/30 01:35:23;;;;;;;64.57;34.25;;;8.00;99.90;;;;;;5051232;28;20499;-80
2021/04/30 01:37:51;;;;;;;75.38;33.67;;;8.00;99.90;;;;;;5076518;28;20036;-80
2021/04/30 01:40:30;;;;;;;70.90;34.15;;;8.00;99.90;;;;;;5047991;28;21161;-81
2021/04/30 01:43:16;;;;;;;61.10;30.88;;;8.00;99.90;;;;;;5068176;28;20056;-81
2021/04/30 01:45:52;;;;;;;65.47;32.08;;;8.00;99.90;;;;;;5057037;28;20032;-80
2021/04/30 01:48:21;;;;;;;66.57;33.60;;;8.00;99.90;;;;;;5078460;28;20036;-80
2021/04/30 01:50:49;;;;;;;66.35;33.65;;;8.00;99.90;;;;;;5064315;28;20028;-80
2021/04/30 01:53:19;;;;;;;63.85;29.38;;;8.00;99.90;;;;;;5064175;28;20040;-80
2021/04/30 01:55:45;;;;;;;83.75;35.83;;;8.10;99.90;;;;;;5062260;28;20051;-81
2021/04/30 01:58:12;;;;;;;68.88;33.05;;;8.10;99.90;;;;;;5072420;28;20403;-80
2021/04/30 02:00:39;;;;;;;69.93;32.40;;;8.10;99.90;;;;;;5078470;28;20066;-80
2021/04/30 02:03:05;;;;;;;44.10;26.70;;;8.10;99.90;;;;;;5078726;28;20048;-81
2021/04/30 02:05:33;;;;;;;69.35;32.72;;;8.10;99.90;;;;;;5046348;28;20509;-80
2021/04/30 02:08:26;;;;;;;67.80;32.83;;;8.10;99.90;;;;;;5045445;28;20044;-80
2021/04/30 02:10:53;;;;;;;59.95;31.48;;;8.10;99.90;;;;;;5078566;28;20066;-80
2021/04/30 02:13:22;;;;;;;57.40;26.90;;;8.10;99.90;;;;;;5072432;28;20083;-80
2021/04/30 02:15:54;;;;;;;66.05;31.98;;;8.10;99.90;;;;;;5076110;28;20052;-80
2021/04/30 02:18:24;;;;;;;69.60;33.47;;;8.20;99.90;;;;;;5077545;28;20056;-80
2021/04/30 02:20:52;;;;;;;55.45;28.33;;;8.20;99.90;;;;;;5060442;28;20056;-81
2021/04/30 02:23:19;;;;;;;59.28;30.15;;;8.20;99.90;;;;;;5079070;28;20055;-81
2021/04/30 02:25:46;;;;;;;69.85;34.95;;;8.20;99.90;;;;;;5045579;28;20048;-80
2021/04/30 02:28:13;;;;;;;71.65;33.17;;;8.20;99.90;;;;;;5042819;28;20041;-81
2021/04/30 02:30:41;;;;;;;89.70;35.45;;;8.20;99.90;;;;;;5066188;28;20040;-81
2021/04/30 02:33:10;;;;;;;65.32;32.35;;;8.20;99.90;;;;;;5059464;28;20158;-82
2021/04/30 02:35:45;;;;;;;93.22;37.65;;;8.20;99.90;;;;;;5063552;28;20055;-81
2021/04/30 02:38:14;;;;;;;72.35;35.08;;;8.20;99.90;;;;;;5058222;28;20477;-81
2021/04/30 02:40:43;;;;;;;69.28;31.70;;;8.20;99.90;;;;;;5045510;28;20483;-81
2021/04/30 02:43:15;;;;;;;71.85;34.28;;;8.20;99.90;;;;;;5077220;28;20056;-81
2021/04/30 02:45:43;;;;;;;63.85;31.10;;;8.20;99.90;;;;;;5059783;28;20425;-81
2021/04/30 02:48:13;;;;;;;60.88;29.05;;;8.20;99.90;;;;;;5048634;28;20055;-81
2021/04/30 02:50:41;;;;;;;66.88;32.05;;;8.20;99.90;;;;;;5075901;28;20055;-81
2021/04/30 02:53:08;;;;;;;71.82;34.47;;;8.20;99.90;;;;;;5050807;28;20033;-80
2021/04/30 02:55:35;;;;;;;74.30;32.38;;;8.20;99.90;;;;;;5059040;28;20046;-80
2021/04/30 02:58:02;;;;;;;71.63;34.30;;;8.30;99.90;;;;;;5057388;28;20028;-80
2021/04/30 03:00:30;;;;;;;70.60;31.40;;;8.30;99.90;;;;;;5060654;28;20080;-80
2021/04/30 03:02:58;;;;;;;73.88;32.40;;;8.30;99.90;;;;;;5063874;28;20486;-81
2021/04/30 03:05:24;;;;;;;77.63;33.42;;;8.30;99.90;;;;;;5061406;28;20043;-81
2021/04/30 03:07:51;;;;;;;76.40;33.55;;;8.30;99.90;;;;;;5060124;28;20047;-81
2021/04/30 03:10:18;;;;;;;65.03;29.17;;;8.40;99.90;;;;;;5043290;28;20040;-81
2021/04/30 03:12:46;;;;;;;70.50;31.45;;;8.40;99.90;;;;;;5062113;28;20048;-83
2021/04/30 03:15:15;;;;;;;74.43;33.63;;;8.30;99.90;;;;;;5059414;28;20036;-83
2021/04/30 03:17:45;;;;;;;83.50;35.42;;;8.40;99.90;;;;;;5060113;28;20047;-83
2021/04/30 03:20:13;;;;;;;64.70;31.33;;;8.40;99.90;;;;;;5045087;28;20047;-83
2021/04/30 03:22:40;;;;;;;72.78;32.03;;;8.40;99.90;;;;;;5060136;28;20090;-82
2021/04/30 03:25:08;;;;;;;74.03;32.17;;;8.40;99.90;;;;;;5075727;28;20036;-83
2021/04/30 03:27:35;;;;;;;75.65;35.15;;;8.40;99.90;;;;;;5064041;28;20032;-82
2021/04/30 03:30:03;;;;;;;68.57;30.23;;;8.40;99.90;;;;;;5009040;28;20040;-82
2021/04/30 03:32:29;;;;;;;59.83;29.80;;;8.40;99.90;;;;;;5079885;28;20048;-83
2021/04/30 03:34:56;;;;;;;61.53;30.73;;;8.50;99.90;;;;;;5078421;28;20048;-82
2021/04/30 03:37:23;;;;;;;46.08;25.13;;;8.50;99.90;;;;;;5038196;28;20047;-82
2021/04/30 03:39:50;;;;;;;59.58;28.67;;;8.50;99.90;;;;;;5076064;28;20838;-83
2021/04/30 03:42:17;;;;;;;72.45;31.98;;;8.50;99.90;;;;;;5058651;28;20047;-82
2021/04/30 03:44:44;;;;;;;63.20;32.88;;;8.50;99.90;;;;;;5063438;28;20044;-83
2021/04/30 03:47:11;;;;;;;65.22;32.08;;;8.50;99.90;;;;;;5055927;28;20044;-82
2021/04/30 03:50:14;;;;;;;55.96;31.66;;;8.50;99.90;;;;;;5110430;27;1044877;-81
2021/04/30 03:52:41;;;;;;;66.22;32.33;;;8.50;99.90;;;;;;5069141;28;20051;-81
2021/04/30 03:55:08;;;;;;;55.47;30.15;;;8.50;99.90;;;;;;5121363;28;20047;-82
2021/04/30 03:57:35;;;;;;;59.33;31.67;;;8.40;99.90;;;;;;5123917;27;20066;-81
2021/04/30 04:00:03;;;;;;;65.97;32.55;;;8.40;99.90;;;;;;5104371;28;20386;-81
2021/04/30 04:02:41;;;;;;;76.07;36.30;;;8.40;99.90;;;;;;5119131;28;20047;-82
2021/04/30 04:05:08;;;;;;;65.70;34.00;;;8.40;99.90;;;;;;5054270;28;20031;-82
2021/04/30 04:07:34;;;;;;;52.67;30.98;;;8.40;99.90;;;;;;5104210;28;20043;-82
2021/04/30 04:10:02;;;;;;;65.25;34.70;;;8.40;99.90;;;;;;5122056;28;20039;-81
2021/04/30 04:12:28;;;;;;;53.92;29.00;;;8.30;99.90;;;;;;5055807;28;20039;-82
2021/04/30 04:14:55;;;;;;;59.03;30.65;;;8.40;99.90;;;;;;5104427;28;20367;-82
2021/04/30 04:17:22;;;;;;;63.60;30.75;;;8.40;99.90;;;;;;5071898;28;20798;-82
2021/04/30 04:19:49;;;;;;;54.45;31.13;;;8.30;99.90;;;;;;5070377;28;20046;-81
2021/04/30 04:22:16;;;;;;;56.83;30.25;;;8.30;99.90;;;;;;5088791;28;20039;-82
2021/04/30 04:24:43;;;;;;;60.60;29.67;;;8.30;99.90;;;;;;5103637;28;20054;-82
2021/04/30 04:27:10;;;;;;;59.47;29.08;;;8.30;99.90;;;;;;5117109;27;20054;-82
2021/04/30 04:29:37;;;;;;;59.55;32.50;;;8.20;99.90;;;;;;5101726;28;20039;-82
2021/04/30 04:32:05;;;;;;;54.55;31.63;;;8.20;99.90;;;;;;5099133;28;20031;-82
2021/04/30 04:34:32;;;;;;;64.15;30.77;;;8.20;99.90;;;;;;5113231;27;20047;-82
2021/04/30 04:36:58;;;;;;;54.97;29.45;;;8.20;99.90;;;;;;5086451;28;20024;-82
2021/04/30 04:39:25;;;;;;;62.33;30.35;;;8.20;99.90;;;;;;5101517;28;20418;-83
2021/04/30 04:41:52;;;;;;;60.88;31.85;;;8.20;99.90;;;;;;5085241;28;20410;-82
2021/04/30 04:44:19;;;;;;;61.97;32.45;;;8.30;99.90;;;;;;5072052;27;20380;-82
2021/04/30 04:46:45;;;;;;;60.38;31.13;;;8.30;99.90;;;;;;5104554;28;20031;-82
2021/04/30 04:49:12;;;;;;;60.13;34.05;;;8.40;99.90;;;;;;5088405;28;20536;-82
2021/04/30 04:51:39;;;;;;;59.20;31.25;;;8.40;99.90;;;;;;5102551;28;20047;-82
2021/04/30 04:54:08;;;;;;;67.32;34.33;;;8.40;99.90;;;;;;5099916;28;20032;-82
2021/04/30 04:56:35;;;;;;;70.90;34.50;;;8.40;99.90;;;;;;5100548;28;20050;-82
2021/04/30 04:59:02;;;;;;;76.05;34.47;;;8.40;99.90;;;;;;5117558;27;20406;-83
2021/04/30 05:01:29;;;;;;;69.75;34.15;;;8.50;99.90;;;;;;5090727;28;20492;-82
2021/04/30 05:03:56;;;;;;;63.33;33.45;;;8.50;99.90;;;;;;5085887;28;20044;-82
2021/04/30 05:06:22;;;;;;;58.70;32.55;;;8.60;99.90;;;;;;5056794;28;20044;-81
2021/04/30 05:08:49;;;;;;;79.57;37.63;;;8.60;99.90;;;;;;5070470;28;20042;-81
2021/04/30 05:11:15;;;;;;;68.82;38.28;;;8.70;99.90;;;;;;5055671;28;20050;-82
2021/04/30 05:13:45;;;;;;;73.95;36.85;;;8.60;99.90;;;;;;5089160;28;20036;-81
2021/04/30 05:16:15;;;;;;;64.97;35.40;;;8.70;99.90;;;;;;5088514;28;20039;-82
2021/04/30 05:18:41;;;;;;;61.33;34.67;;;8.60;99.90;;;;;;5070483;28;20048;-81
2021/04/30 05:21:08;;;;;;;67.30;36.80;;;8.60;99.90;;;;;;5071992;28;20054;-81
2021/04/30 05:23:39;;;;;;;69.57;35.25;;;8.70;99.90;;;;;;5054500;28;20043;-81
2021/04/30 05:26:05;;;;;;;71.55;37.00;;;8.70;99.90;;;;;;5070524;28;20040;-81
2021/04/30 05:28:33;;;;;;;72.60;39.20;;;8.70;99.90;;;;;;5070356;28;20039;-81
2021/04/30 05:31:00;;;;;;;66.78;35.00;;;8.70;99.90;;;;;;5084935;28;20032;-82
2021/04/30 05:33:26;;;;;;;60.63;33.22;;;8.70;99.90;;;;;;5106802;27;20032;-81
2021/04/30 05:35:53;;;;;;;79.10;41.08;;;8.70;99.90;;;;;;5086581;28;20516;-81
2021/04/30 05:38:20;;;;;;;67.88;39.08;;;8.70;99.90;;;;;;5084242;28;20035;-81
2021/04/30 05:40:47;;;;;;;67.95;37.90;;;8.70;99.90;;;;;;5071846;28;20031;-81
2021/04/30 05:43:15;;;;;;;71.68;37.63;;;8.80;99.90;;;;;;5071873;28;20397;-81
2021/04/30 05:45:44;;;;;;;69.50;34.88;;;8.80;99.90;;;;;;5058622;28;20032;-81
2021/04/30 05:48:11;;;;;;;59.22;35.40;;;8.80;99.90;;;;;;5086251;28;20375;-81
2021/04/30 05:50:38;;;;;;;65.70;35.40;;;8.90;99.90;;;;;;5086338;28;20487;-81
2021/04/30 05:53:05;;;;;;;70.65;36.22;;;8.90;99.90;;;;;;5069445;28;20028;-81
2021/04/30 05:55:32;;;;;;;68.38;34.35;;;9.00;99.90;;;;;;5069146;28;20036;-81
2021/04/30 05:57:58;;;;;;;63.20;35.00;;;9.00;99.90;;;;;;5084789;28;20039;-82
2021/04/30 06:00:25;;;;;;;65.20;35.53;;;9.00;99.90;;;;;;5087778;28;20658;-82
2021/04/30 06:02:52;;;;;;;62.40;35.42;;;9.10;99.90;;;;;;5086435;28;20975;-82
2021/04/30 06:05:18;;;;;;;66.78;36.22;;;9.10;99.90;;;;;;5084159;28;20044;-82
2021/04/30 06:07:45;;;;;;;58.80;30.80;;;9.10;99.90;;;;;;5072026;28;20035;-80
2021/04/30 06:10:11;;;;;;;59.13;34.50;;;9.10;99.90;;;;;;5085948;28;20055;-82
2021/04/30 06:12:38;;;;;;;65.93;35.95;;;9.10;99.90;;;;;;5068036;28;20031;-82
2021/04/30 06:15:05;;;;;;;63.22;36.90;;;9.10;99.90;;;;;;5070180;28;20833;-81
2021/04/30 06:17:32;;;;;;;65.45;36.95;;;9.20;99.90;;;;;;5104110;28;20051;-83
2021/04/30 06:19:58;;;;;;;73.05;36.53;;;9.20;99.90;;;;;;5105169;28;20062;-80
2021/04/30 06:22:32;;;;;;;60.83;35.63;;;9.30;99.90;;;;;;5079168;28;20038;-81
2021/04/30 06:24:58;;;;;;;68.63;37.30;;;9.30;99.90;;;;;;5052007;28;20036;-81
2021/04/30 06:27:25;;;;;;;62.20;35.50;;;9.30;99.90;;;;;;5070774;28;20048;-81
2021/04/30 06:29:52;;;;;;;67.93;37.45;;;9.40;99.90;;;;;;5085348;28;20051;-81
2021/04/30 06:32:18;;;;;;;59.72;37.05;;;9.30;99.90;;;;;;5084907;28;20035;-81
2021/04/30 06:34:46;;;;;;;66.15;37.67;;;9.40;99.90;;;;;;5104651;27;20585;-80
2021/04/30 06:37:12;;;;;;;69.07;36.80;;;9.40;99.90;;;;;;5103884;28;20032;-81
2021/04/30 06:39:39;;;;;;;64.32;37.08;;;9.40;99.90;;;;;;5066719;28;20044;-81
2021/04/30 06:42:06;;;;;;;72.60;37.92;;;9.40;99.90;;;;;;5101601;28;20051;-80
2021/04/30 06:44:33;;;;;;;65.05;36.92;;;9.50;99.90;;;;;;5102464;28;20044;-78
2021/04/30 06:47:00;;;;;;;58.95;34.17;;;9.50;99.90;;;;;;5085972;28;20036;-81
2021/04/30 06:49:27;;;;;;;67.05;40.15;;;9.50;99.90;;;;;;5083155;28;20059;-80
2021/04/30 06:51:55;;;;;;;73.03;41.42;;;9.50;99.90;;;;;;5084495;28;20040;-81
2021/04/30 06:54:21;;;;;;;74.38;41.67;;;9.50;99.90;;;;;;5099723;28;20414;-86
2021/04/30 06:56:48;;;;;;;63.72;37.13;;;9.50;99.90;;;;;;5068719;28;20043;-80
2021/04/30 06:59:14;;;;;;;72.22;38.72;;;9.50;99.90;;;;;;5086347;28;20051;-80
2021/04/30 07:01:41;;;;;;;66.57;39.67;;;9.60;99.90;;;;;;5099803;28;20058;-81
2021/04/30 07:04:09;;;;;;;72.90;38.83;;;9.60;99.90;;;;;;5083394;28;20046;-81
2021/04/30 07:06:36;;;;;;;74.43;39.85;;;9.70;99.90;;;;;;5097680;28;20036;-81
2021/04/30 07:09:04;;;;;;;74.45;41.22;;;9.80;99.90;;;;;;5102344;28;20047;-80
2021/04/30 07:11:30;;;;;;;66.65;41.03;;;9.80;99.90;;;;;;5095941;28;20039;-81
2021/04/30 07:13:57;;;;;;;65.28;40.15;;;9.90;99.90;;;;;;5101277;28;20036;-81
2021/04/30 07:16:24;;;;;;;65.35;41.00;;;9.90;99.90;;;;;;5099921;28;20770;-81
2021/04/30 07:18:50;;;;;;;66.45;39.17;;;10.00;99.90;;;;;;5099358;28;20584;-81
2021/04/30 07:21:17;;;;;;;62.45;40.25;;;10.00;99.90;;;;;;5101084;28;20055;-80
2021/04/30 07:23:44;;;;;;;65.32;40.30;;;10.10;99.90;;;;;;5097542;28;20489;-80
2021/04/30 07:26:10;;;;;;;68.55;43.50;;;10.10;99.90;;;;;;5081841;28;20047;-80
2021/04/30 07:28:37;;;;;;;61.88;40.75;;;10.10;99.90;;;;;;5099332;28;20035;-81
2021/04/30 07:31:03;;;;;;;65.60;41.72;;;10.20;99.90;;;;;;5084996;28;20473;-81
2021/04/30 07:33:30;;;;;;;62.65;41.25;;;10.20;99.90;;;;;;5101067;28;20039;-81
2021/04/30 07:35:57;;;;;;;64.63;41.55;;;10.30;99.90;;;;;;5096629;28;20027;-81
2021/04/30 07:38:34;;;;;;;62.42;41.92;;;10.30;99.90;;;;;;5067654;28;20038;-81
2021/04/30 07:41:01;;;;;;;62.28;41.97;;;10.40;99.90;;;;;;5084899;28;20054;-80
2021/04/30 07:43:27;;;;;;;62.83;43.60;;;10.40;99.90;;;;;;5082897;28;20038;-80
2021/04/30 07:45:54;;;;;;;58.58;40.65;;;10.50;99.90;;;;;;5067896;28;20498;-80
2021/04/30 07:48:21;;;;;;;63.70;41.30;;;10.60;99.90;;;;;;5099628;28;20044;-81
2021/04/30 07:50:47;;;;;;;55.20;38.20;;;10.70;99.90;;;;;;5102634;28;20039;-79
2021/04/30 07:53:14;;;;;;;52.55;38.45;;;10.80;99.90;;;;;;5066196;28;20479;-80
2021/04/30 07:55:40;;;;;;;61.10;40.72;;;10.80;99.90;;;;;;5083768;28;20035;-80
2021/04/30 07:58:07;;;;;;;54.70;38.90;;;10.80;99.90;;;;;;5085092;28;20416;-81
2021/04/30 08:00:33;;;;;;;51.90;37.72;;;10.90;99.90;;;;;;5067585;28;20040;-79
2021/04/30 08:03:00;;;;;;;50.95;38.95;;;10.90;99.90;;;;;;5037530;28;20032;-80
2021/04/30 08:05:27;;;;;;;49.35;38.85;;;10.90;99.90;;;;;;5102309;28;20056;-79
2021/04/30 08:07:53;;;;;;;50.90;36.63;;;10.90;99.90;;;;;;5102106;28;20039;-79
2021/04/30 08:10:20;;;;;;;47.97;34.97;;;10.90;99.90;;;;;;5083774;28;20052;-79
2021/04/30 08:12:47;;;;;;;44.65;34.00;;;10.90;99.90;;;;;;5103295;28;20051;-80
2021/04/30 08:15:16;;;;;;;50.63;36.47;;;11.00;99.90;;;;;;5101838;28;20032;-79
2021/04/30 08:17:43;;;;;;;52.40;37.78;;;10.90;99.90;;;;;;5102603;28;20044;-79
2021/04/30 08:20:10;;;;;;;54.20;40.60;;;11.00;99.90;;;;;;5084310;28;20499;-80
2021/04/30 08:22:37;;;;;;;50.65;38.88;;;11.00;99.90;;;;;;5083143;28;20059;-79
2021/04/30 08:25:04;;;;;;;53.40;39.58;;;11.00;99.90;;;;;;5066074;28;20038;-80
2021/04/30 08:27:30;;;;;;;56.83;38.05;;;11.00;99.90;;;;;;5099411;28;20054;-80
2021/04/30 08:29:57;;;;;;;53.10;36.22;;;10.90;99.90;;;;;;5102718;28;20398;-77
2021/04/30 08:32:23;;;;;;;51.00;36.17;;;11.00;99.90;;;;;;5100374;28;20031;-77
2021/04/30 08:34:50;;;;;;;43.78;32.55;;;11.00;99.90;;;;;;5099428;28;20044;-77
2021/04/30 08:37:16;;;;;;;48.58;35.88;;;11.00;99.90;;;;;;5104568;28;20630;-78
2021/04/30 08:39:43;;;;;;;45.42;33.67;;;11.10;99.90;;;;;;5104430;28;20040;-77
2021/04/30 08:42:10;;;;;;;46.10;33.55;;;11.00;99.90;;;;;;5054549;28;20039;-78
2021/04/30 08:44:38;;;;;;;49.97;34.53;;;11.00;99.90;;;;;;5102925;28;20055;-78
2021/04/30 08:47:05;;;;;;;42.35;33.72;;;11.00;99.90;;;;;;5104376;28;20043;-78
2021/04/30 08:49:32;;;;;;;44.75;32.65;;;10.90;99.90;;;;;;5070722;28;20414;-79
2021/04/30 08:51:58;;;;;;;45.95;34.05;;;10.90;99.90;;;;;;5103754;28;20048;-78
2021/04/30 08:54:25;;;;;;;49.40;36.53;;;10.90;99.90;;;;;;5086462;28;20035;-78
2021/04/30 08:57:00;;;;;;;47.42;33.03;;;11.00;99.90;;;;;;5101845;28;20027;-78
2021/04/30 08:59:27;;;;;;;43.47;32.45;;;11.10;99.90;;;;;;5068521;28;20031;-78
2021/04/30 09:01:54;;;;;;;44.65;33.67;;;11.20;99.90;;;;;;5084975;28;20132;-78
2021/04/30 09:04:20;;;;;;;44.13;33.05;;;11.30;99.90;;;;;;5103866;28;20044;-78
2021/04/30 09:06:47;;;;;;;47.40;34.20;;;11.40;99.90;;;;;;5102296;28;20477;-78
2021/04/30 09:09:18;;;;;;;44.05;33.67;;;11.50;99.90;;;;;;5084745;28;20043;-78
2021/04/30 09:11:48;;;;;;;48.47;33.33;;;11.60;99.90;;;;;;5102253;28;20039;-78
2021/04/30 09:14:24;;;;;;;44.72;32.67;;;11.70;99.90;;;;;;5103175;28;20469;-78
2021/04/30 09:17:15;;;;;;;44.47;30.88;;;11.80;99.90;;;;;;5106288;28;20036;-79
2021/04/30 09:19:47;;;;;;;40.65;29.08;;;12.00;99.90;;;;;;5102749;28;20039;-79
2021/04/30 09:22:19;;;;;;;38.13;28.30;;;12.10;99.90;;;;;;5085634;28;20086;-79
2021/04/30 09:24:50;;;;;;;45.33;32.40;;;12.20;99.90;;;;;;5105359;28;20027;-79
2021/04/30 09:27:37;;;;;;;43.47;31.42;;;12.30;99.90;;;;;;5103925;28;20078;-78
2021/04/30 09:30:18;;;;;;;35.97;30.20;;;12.20;99.90;;;;;;5101239;28;20422;-79
2021/04/30 09:33:07;;;;;;;42.38;30.77;;;12.20;99.90;;;;;;5105030;28;20027;-79
2021/04/30 09:35:44;;;;;;;41.72;30.60;;;12.20;99.90;;;;;;5103356;28;20040;-79
2021/04/30 09:38:27;;;;;;;41.58;30.17;;;12.20;99.90;;;;;;5102759;28;20054;-79
2021/04/30 09:41:11;;;;;;;42.30;31.23;;;12.20;99.90;;;;;;5104330;28;20031;-79
2021/04/30 09:43:46;;;;;;;43.05;29.38;;;12.40;99.90;;;;;;5104388;28;20051;-79
2021/04/30 09:46:36;;;;;;;39.22;30.35;;;12.50;99.90;;;;;;5102896;28;20051;-79
2021/04/30 09:49:14;;;;;;;37.17;29.38;;;12.60;99.90;;;;;;5098787;28;20051;-79
2021/04/30 09:51:51;;;;;;;40.00;30.15;;;12.80;99.90;;;;;;5104374;28;20048;-79
2021/04/30 09:54:25;;;;;;;36.83;27.67;;;12.90;99.90;;;;;;5103268;28;20047;-79
2021/04/30 09:57:13;;;;;;;32.83;28.52;;;13.00;99.90;;;;;;5102756;28;20042;-79
2021/04/30 09:59:41;;;;;;;33.97;29.08;;;13.00;99.90;;;;;;5102908;28;20445;-79
2021/04/30 10:02:17;;;;;;;37.58;29.10;;;12.90;99.90;;;;;;5103247;28;20042;-79
2021/04/30 10:04:50;;;;;;;39.80;28.90;;;12.80;99.90;;;;;;5102744;28;20032;-79
2021/04/30 10:07:25;;;;;;;38.50;31.95;;;12.60;99.90;;;;;;5087748;28;20039;-80
2021/04/30 10:10:11;;;;;;;40.38;31.15;;;12.40;99.90;;;;;;5100856;28;20504;-80
2021/04/30 10:12:45;;;;;;;40.65;31.33;;;12.30;99.90;;;;;;5103443;28;20055;-79
2021/04/30 10:15:14;;;;;;;37.35;29.35;;;12.20;99.90;;;;;;5103169;28;20050;-79
2021/04/30 10:17:41;;;;;;;37.90;31.38;;;12.20;99.90;;;;;;5103798;28;20040;-79
2021/04/30 10:20:12;;;;;;;33.08;27.30;;;12.30;99.90;;;;;;5103108;28;20036;-79
2021/04/30 10:22:41;;;;;;;38.50;29.50;;;12.50;99.90;;;;;;5104176;28;20031;-79
2021/04/30 10:25:11;;;;;;;38.92;28.98;;;12.80;99.90;;;;;;5104030;28;20608;-79
2021/04/30 10:27:41;;;;;;;35.47;29.08;;;13.10;99.90;;;;;;5085053;28;20060;-79
2021/04/30 10:30:21;;;;;;;29.52;26.10;;;13.30;99.90;;;;;;5104157;28;20039;-79
2021/04/30 10:33:17;;;;;;;28.80;25.65;;;13.60;99.90;;;;;;5103288;28;20047;-79
2021/04/30 10:36:06;;;;;;;30.67;25.33;;;13.90;99.90;;;;;;5102086;28;20034;-80
2021/04/30 10:38:40;;;;;;;32.45;25.80;;;13.90;99.80;;;;;;5103037;27;20110;-79
2021/04/30 10:41:10;;;;;;;30.40;26.08;;;13.80;99.70;;;;;;5103430;28;20516;-79
2021/04/30 10:43:38;;;;;;;31.75;25.20;;;13.70;99.20;;;;;;5100647;28;20398;-79
2021/04/30 10:46:21;;;;;;;32.60;26.40;;;13.50;99.20;;;;;;5102911;28;20042;-79
2021/04/30 10:49:03;;;;;;;31.08;25.60;;;13.20;99.20;;;;;;5101334;28;20059;-79
2021/04/30 10:51:31;;;;;;;28.95;25.67;;;12.90;99.40;;;;;;5104823;28;20058;-79
2021/04/30 10:54:30;;;;;;;27.80;24.30;;;12.70;99.80;;;;;;5102817;28;20028;-79
2021/04/30 10:57:00;;;;;;;29.23;22.60;;;12.50;99.70;;;;;;5103272;28;20023;-79
2021/04/30 10:59:49;;;;;;;24.40;21.80;;;12.40;99.90;;;;;;5100271;28;20424;-79
2021/04/30 11:02:22;;;;;;;25.17;22.48;;;12.30;99.90;;;;;;5066540;28;20047;-80
2021/04/30 11:05:10;;;;;;;22.50;19.38;;;12.30;99.90;;;;;;5098639;28;20038;-80
2021/04/30 11:07:47;;;;;;;22.88;19.73;;;12.30;99.90;;;;;;5102514;28;20047;-79
2021/04/30 11:10:22;;;;;;;30.55;23.92;;;12.40;99.90;;;;;;5099121;28;20044;-79
2021/04/30 11:13:04;;;;;;;27.83;24.25;;;12.40;99.90;;;;;;5100249;28;20028;-79
2021/04/30 11:15:32;;;;;;;30.90;25.00;;;12.50;99.90;;;;;;5102281;28;20391;-79
2021/04/30 11:18:01;;;;;;;32.55;27.48;;;12.80;99.90;;;;;;5100008;28;20043;-79
2021/04/30 11:20:34;;;;;;;33.58;28.42;;;13.20;99.90;;;;;;5084421;28;20039;-79
2021/04/30 11:23:16;;;;;;;24.90;22.08;;;13.70;99.90;;;;;;5084762;28;20038;-79
2021/04/30 11:25:58;;;;;;;28.60;25.00;;;14.10;99.30;;;;;;5100318;28;20409;-79
2021/04/30 11:28:45;;;;;;;24.80;22.27;;;14.30;99.20;;;;;;5101076;28;20050;-79
2021/04/30 11:31:18;;;;;;;26.13;23.40;;;14.40;99.30;;;;;;5102542;28;20047;-79
2021/04/30 11:34:22;;;;;;;25.13;22.38;;;14.50;99.20;;;;;;5102242;28;20490;-79
2021/04/30 11:36:55;;;;;;;28.20;24.27;;;14.50;98.90;;;;;;5102871;28;20501;-79
2021/04/30 11:39:28;;;;;;;30.00;24.58;;;14.40;98.40;;;;;;5100516;28;20386;-79
2021/04/30 11:42:04;;;;;;;29.65;26.42;;;14.30;98.30;;;;;;5103325;28;20036;-79
2021/04/30 11:44:30;;;;;;;28.63;25.33;;;14.30;98.60;;;;;;5100664;28;20036;-79
2021/04/30 11:47:02;;;;;;;29.90;26.38;;;14.50;99.10;;;;;;5101664;28;20047;-79
2021/04/30 11:49:30;;;;;;;31.70;25.97;;;14.80;98.40;;;;;;5100196;28;20043;-80
2021/04/30 11:51:57;;;;;;;25.50;22.92;;;14.90;97.90;;;;;;5102517;28;20836;-79
2021/04/30 11:54:29;;;;;;;29.20;24.10;;;15.00;97.60;;;;;;5102528;28;20141;-79
2021/04/30 11:57:01;;;;;;;27.05;23.58;;;15.00;97.20;;;;;;5099987;28;20038;-79
2021/04/30 11:59:28;;;;;;;30.38;24.88;;;15.00;97.00;;;;;;5101379;28;20055;-79
2021/04/30 12:02:04;;;;;;;29.05;24.50;;;15.00;96.50;;;;;;5085043;28;20066;-79
2021/04/30 12:04:45;;;;;;;26.25;23.05;;;15.00;95.70;;;;;;5100857;28;20561;-79
2021/04/30 12:07:14;;;;;;;28.73;23.65;;;14.90;95.50;;;;;;5102944;28;20047;-79
2021/04/30 12:09:45;;;;;;;25.85;23.15;;;14.80;95.30;;;;;;5066080;28;20047;-79
2021/04/30 12:12:18;;;;;;;26.50;22.88;;;14.80;95.50;;;;;;5105839;28;20036;-79
2021/04/30 12:14:49;;;;;;;;;;;14.80;95.70;;;;;;5104935;28;20066;-79
2021/04/30 12:17:20;;;;;;;25.08;22.48;;;14.90;96.00;;;;;;5104738;28;20385;-79
2021/04/30 12:20:04;;;;;;;25.67;21.60;;;15.00;95.60;;;;;;5102263;28;20048;-79
2021/04/30 12:22:30;;;;;;;28.50;24.00;;;15.00;95.40;;;;;;5089712;28;20036;-79
2021/04/30 12:25:16;;;;;;;24.30;20.90;;;15.00;95.20;;;;;;5092738;28;20020;-79
2021/04/30 12:27:43;;;;;;;23.88;21.30;;;14.90;95.10;;;;;;5102600;28;20031;-80
2021/04/30 12:30:27;;;;;;;23.38;20.88;;;15.00;95.30;;;;;;5106429;28;20040;-79
2021/04/30 12:32:56;;;;;;;24.23;21.67;;;15.10;95.10;;;;;;5104520;28;20045;-79
2021/04/30 12:35:23;;;;;;;25.17;22.15;;;15.30;95.00;;;;;;5103679;28;20075;-79
2021/04/30 12:37:50;;;;;;;23.50;21.02;;;15.90;95.00;;;;;;5104862;28;20051;-79
2021/04/30 12:40:22;;;;;;;24.90;19.27;;;16.80;94.40;;;;;;5103091;28;20046;-79
2021/04/30 12:42:51;;;;;;;20.52;18.33;;;17.60;92.20;;;;;;5105695;28;20862;-79
2021/04/30 12:45:20;;;;;;;20.98;18.77;;;18.20;90.40;;;;;;5105883;28;20044;-80
2021/04/30 12:47:49;;;;;;;20.13;17.95;;;18.80;87.10;;;;;;5103897;28;20039;-80